createdAt,value
2018-08-07T00:00:46.436Z,0.00
2018-08-07T00:01:46.423Z,0.00
2018-08-07T00:02:46.403Z,0.00
2018-08-07T00:03:46.424Z,0.00
2018-08-07T00:04:46.387Z,0.00
2018-08-07T00:05:46.373Z,0.00
2018-08-07T00:06:46.384Z,0.00
2018-08-07T00:07:46.364Z,0.00
2018-08-07T00:08:46.359Z,0.00
2018-08-07T00:09:46.349Z,0.00
2018-08-07T00:10:46.321Z,0.00
2018-08-07T00:11:46.309Z,0.00
2018-08-07T00:12:46.327Z,0.00
2018-08-07T00:13:46.327Z,0.00
2018-08-07T00:14:46.284Z,0.00
2018-08-07T00:15:46.290Z,0.00
2018-08-07T00:16:46.264Z,0.00
2018-08-07T00:17:46.247Z,0.00
2018-08-07T00:18:46.254Z,0.00
2018-08-07T00:19:46.231Z,0.00
2018-08-07T00:20:46.222Z,0.00
2018-08-07T00:21:46.222Z,0.00
2018-08-07T00:22:46.201Z,0.00
2018-08-07T00:23:46.187Z,0.00
2018-08-07T00:24:46.195Z,0.00
2018-08-07T00:25:46.164Z,0.00
2018-08-07T00:26:46.153Z,0.00
2018-08-07T00:27:46.144Z,0.00
2018-08-07T00:28:46.157Z,0.00
2018-08-07T00:29:46.121Z,0.00
2018-08-07T00:30:46.133Z,0.00
2018-08-07T00:31:46.114Z,0.00
2018-08-07T00:32:46.091Z,0.00
2018-08-07T00:33:46.091Z,0.00
2018-08-07T00:34:46.088Z,0.00
2018-08-07T00:35:46.076Z,0.00
2018-08-07T00:36:46.051Z,0.00
2018-08-07T00:37:46.053Z,0.00
2018-08-07T00:38:46.032Z,0.00
2018-08-07T00:39:46.019Z,0.00
2018-08-07T00:40:46.044Z,0.00
2018-08-07T00:41:45.996Z,0.00
2018-08-07T00:42:45.990Z,0.00
2018-08-07T00:43:45.976Z,0.00
2018-08-07T00:44:45.966Z,0.00
2018-08-07T00:45:45.958Z,0.00
2018-08-07T00:46:45.963Z,0.00
2018-08-07T00:47:45.940Z,0.00
2018-08-07T00:48:45.923Z,0.00
2018-08-07T00:49:45.917Z,0.00
2018-08-07T00:50:45.913Z,0.00
2018-08-07T00:51:45.905Z,0.00
2018-08-07T00:52:45.880Z,0.00
2018-08-07T00:53:45.871Z,0.00
2018-08-07T00:54:45.858Z,0.00
2018-08-07T00:55:45.867Z,0.00
2018-08-07T00:56:50.704Z,0.00
2018-08-07T00:57:45.832Z,0.00
2018-08-07T00:58:45.823Z,0.00
2018-08-07T00:59:45.805Z,0.00
2018-08-07T01:00:45.798Z,0.00
2018-08-07T01:01:45.784Z,0.00
2018-08-07T01:02:45.800Z,0.00
2018-08-07T01:03:45.765Z,0.00
2018-08-07T01:04:45.754Z,0.00
2018-08-07T01:05:45.742Z,0.00
2018-08-07T01:06:45.728Z,0.00
2018-08-07T01:07:45.731Z,0.00
2018-08-07T01:08:45.728Z,0.00
2018-08-07T01:09:45.696Z,0.00
2018-08-07T01:10:45.704Z,0.00
2018-08-07T01:11:45.679Z,0.00
2018-08-07T01:12:45.667Z,0.00
2018-08-07T01:13:45.675Z,0.00
2018-08-07T01:14:45.646Z,0.00
2018-08-07T01:15:45.643Z,0.00
2018-08-07T01:16:45.626Z,0.00
2018-08-07T01:17:45.613Z,0.00
2018-08-07T01:18:45.616Z,0.00
2018-08-07T01:19:45.610Z,0.00
2018-08-07T01:20:45.578Z,0.00
2018-08-07T01:21:45.572Z,0.00
2018-08-07T01:22:45.579Z,0.00
2018-08-07T01:23:45.565Z,0.00
2018-08-07T01:24:45.553Z,0.00
2018-08-07T01:25:45.527Z,0.00
2018-08-07T01:26:45.521Z,0.00
2018-08-07T01:27:45.507Z,0.00
2018-08-07T01:28:45.499Z,0.00
2018-08-07T01:29:45.498Z,0.00
2018-08-07T01:30:45.476Z,0.00
2018-08-07T01:31:45.464Z,0.00
2018-08-07T01:32:45.453Z,0.00
2018-08-07T01:33:45.456Z,0.00
2018-08-07T01:34:45.429Z,0.00
2018-08-07T01:35:45.441Z,0.00
2018-08-07T01:36:45.408Z,0.00
2018-08-07T01:37:45.397Z,0.00
2018-08-07T01:38:45.382Z,0.00
2018-08-07T01:39:45.368Z,0.00
2018-08-07T01:40:45.360Z,0.00
2018-08-07T01:41:45.377Z,0.00
2018-08-07T01:42:45.337Z,0.00
2018-08-07T01:43:45.336Z,0.00
2018-08-07T01:44:45.316Z,0.00
2018-08-07T01:45:45.310Z,0.00
2018-08-07T01:46:45.314Z,0.00
2018-08-07T01:47:45.284Z,0.00
2018-08-07T01:48:45.286Z,0.00
2018-08-07T01:49:45.283Z,0.00
2018-08-07T01:50:45.249Z,0.00
2018-08-07T01:51:45.248Z,0.00
2018-08-07T01:52:45.228Z,0.00
2018-08-07T01:53:45.219Z,0.00
2018-08-07T01:54:45.203Z,0.00
2018-08-07T01:55:45.212Z,0.00
2018-08-07T01:56:45.186Z,0.00
2018-08-07T01:57:45.172Z,0.00
2018-08-07T01:58:45.161Z,0.00
2018-08-07T01:59:45.155Z,0.00
2018-08-07T02:00:45.143Z,0.00
2018-08-07T02:01:45.143Z,0.00
2018-08-07T02:02:45.117Z,0.00
2018-08-07T02:03:45.106Z,0.00
2018-08-07T02:04:45.100Z,0.00
2018-08-07T02:05:45.087Z,0.00
2018-08-07T02:06:45.087Z,0.00
2018-08-07T02:07:45.079Z,0.00
2018-08-07T02:08:45.068Z,0.00
2018-08-07T02:09:45.044Z,0.00
2018-08-07T02:10:45.044Z,0.00
2018-08-07T02:11:45.022Z,0.00
2018-08-07T02:12:45.016Z,0.00
2018-08-07T02:13:44.990Z,0.00
2018-08-07T02:14:44.991Z,0.00
2018-08-07T02:15:45.002Z,0.00
2018-08-07T02:16:44.962Z,0.00
2018-08-07T02:17:44.944Z,0.00
2018-08-07T02:18:44.952Z,0.00
2018-08-07T02:19:44.929Z,0.00
2018-08-07T02:20:44.919Z,0.00
2018-08-07T02:21:44.946Z,0.00
2018-08-07T02:22:44.891Z,0.00
2018-08-07T02:23:44.885Z,0.00
2018-08-07T02:24:44.878Z,0.00
2018-08-07T02:25:44.865Z,0.00
2018-08-07T02:26:44.858Z,0.00
2018-08-07T02:27:44.851Z,0.00
2018-08-07T02:28:44.840Z,0.00
2018-08-07T02:29:44.830Z,0.00
2018-08-07T02:30:44.805Z,0.00
2018-08-07T02:31:44.799Z,0.00
2018-08-07T02:32:44.777Z,0.00
2018-08-07T02:33:44.793Z,0.00
2018-08-07T02:34:44.754Z,0.00
2018-08-07T02:35:44.764Z,0.00
2018-08-07T02:36:44.750Z,0.00
2018-08-07T02:37:44.739Z,0.00
2018-08-07T02:38:44.733Z,0.00
2018-08-07T02:39:44.706Z,0.00
2018-08-07T02:40:44.697Z,0.00
2018-08-07T02:41:44.702Z,0.00
2018-08-07T02:42:44.670Z,0.00
2018-08-07T02:43:44.684Z,0.00
2018-08-07T02:44:44.645Z,0.00
2018-08-07T02:45:44.637Z,0.00
2018-08-07T02:46:44.624Z,0.00
2018-08-07T02:47:44.616Z,0.00
2018-08-07T02:48:44.619Z,0.00
2018-08-07T02:49:44.604Z,0.00
2018-08-07T02:50:44.581Z,0.00
2018-08-07T02:51:44.572Z,0.00
2018-08-07T02:52:44.558Z,0.00
2018-08-07T02:53:44.564Z,0.00
2018-08-07T02:54:44.531Z,0.00
2018-08-07T02:55:44.526Z,0.00
2018-08-07T02:56:44.518Z,0.00
2018-08-07T02:57:44.506Z,0.00
2018-08-07T02:58:44.505Z,0.00
2018-08-07T02:59:44.481Z,0.00
2018-08-07T03:00:44.465Z,0.00
2018-08-07T03:01:44.454Z,0.00
2018-08-07T03:02:44.442Z,0.00
2018-08-07T03:03:44.433Z,0.00
2018-08-07T03:04:44.437Z,0.00
2018-08-07T03:05:44.406Z,0.00
2018-08-07T03:06:44.409Z,0.00
2018-08-07T03:07:44.404Z,0.00
2018-08-07T03:08:44.379Z,0.00
2018-08-07T03:09:44.385Z,0.00
2018-08-07T03:10:44.353Z,0.00
2018-08-07T03:11:44.340Z,0.00
2018-08-07T03:12:44.333Z,0.00
2018-08-07T03:13:44.318Z,0.00
2018-08-07T03:14:44.318Z,0.00
2018-08-07T03:15:44.305Z,0.00
2018-08-07T03:16:44.278Z,0.00
2018-08-07T03:17:44.273Z,0.00
2018-08-07T03:18:44.259Z,0.00
2018-08-07T03:19:44.883Z,0.00
2018-08-07T03:20:44.238Z,0.00
2018-08-07T03:21:44.221Z,0.00
2018-08-07T03:22:44.221Z,0.00
2018-08-07T03:23:44.204Z,0.00
2018-08-07T03:24:44.208Z,0.00
2018-08-07T03:25:44.177Z,0.00
2018-08-07T03:26:44.169Z,0.00
2018-08-07T03:27:44.152Z,0.00
2018-08-07T03:28:44.146Z,0.00
2018-08-07T03:29:44.148Z,0.00
2018-08-07T03:30:44.129Z,0.00
2018-08-07T03:31:44.107Z,0.00
2018-08-07T03:32:44.096Z,0.00
2018-08-07T03:33:44.080Z,0.00
2018-08-07T03:34:44.098Z,0.00
2018-08-07T03:35:44.059Z,0.00
2018-08-07T03:36:44.055Z,0.00
2018-08-07T03:37:44.049Z,0.00
2018-08-07T03:38:44.036Z,0.00
2018-08-07T03:39:44.010Z,0.00
2018-08-07T03:40:44.020Z,0.00
2018-08-07T03:41:43.994Z,0.00
2018-08-07T03:42:43.998Z,0.00
2018-08-07T03:43:43.970Z,0.00
2018-08-07T03:44:43.957Z,0.00
2018-08-07T03:45:43.944Z,0.00
2018-08-07T03:46:43.935Z,0.00
2018-08-07T03:47:43.919Z,4.00
2018-08-07T03:48:43.921Z,4.00
2018-08-07T03:49:43.890Z,0.00
2018-08-07T03:50:43.897Z,0.00
2018-08-07T03:51:43.872Z,4.00
2018-08-07T03:52:43.861Z,4.00
2018-08-07T03:53:43.860Z,4.00
2018-08-07T03:54:43.841Z,4.00
2018-08-07T03:55:43.833Z,4.00
2018-08-07T03:56:43.813Z,8.00
2018-08-07T03:57:43.800Z,4.00
2018-08-07T03:58:43.803Z,4.00
2018-08-07T03:59:43.777Z,8.00
2018-08-07T04:00:43.776Z,8.00
2018-08-07T04:01:43.764Z,8.00
2018-08-07T04:02:43.734Z,8.00
2018-08-07T04:04:04.737Z,12.00
2018-08-07T04:04:43.721Z,12.00
2018-08-07T04:05:43.703Z,12.00
2018-08-07T04:06:43.696Z,12.00
2018-08-07T04:07:43.697Z,16.00
2018-08-07T04:08:43.685Z,16.00
2018-08-07T04:09:43.672Z,20.00
2018-08-07T04:10:43.643Z,20.00
2018-08-07T04:11:43.636Z,20.00
2018-08-07T04:12:43.630Z,24.00
2018-08-07T04:13:43.608Z,24.00
2018-08-07T04:14:43.607Z,24.00
2018-08-07T04:15:43.592Z,24.00
2018-08-07T04:16:43.568Z,28.00
2018-08-07T04:17:43.561Z,28.00
2018-08-07T04:18:43.566Z,28.00
2018-08-07T04:19:43.539Z,32.00
2018-08-07T04:20:43.548Z,36.00
2018-08-07T04:21:43.513Z,40.00
2018-08-07T04:22:43.500Z,40.00
2018-08-07T04:23:43.492Z,40.00
2018-08-07T04:24:43.479Z,40.00
2018-08-07T04:25:43.500Z,44.00
2018-08-07T04:26:43.453Z,48.00
2018-08-07T04:27:43.442Z,48.00
2018-08-07T04:28:43.430Z,52.00
2018-08-07T04:29:43.417Z,56.00
2018-08-07T04:30:43.405Z,56.00
2018-08-07T04:31:43.425Z,56.00
2018-08-07T04:32:43.385Z,60.00
2018-08-07T04:33:43.369Z,60.00
2018-08-07T04:34:43.356Z,64.00
2018-08-07T04:35:43.349Z,68.00
2018-08-07T04:36:43.336Z,72.00
2018-08-07T04:37:43.356Z,76.00
2018-08-07T04:38:43.314Z,80.00
2018-08-07T04:39:43.306Z,80.00
2018-08-07T04:40:43.296Z,84.00
2018-08-07T04:41:43.320Z,88.00
2018-08-07T04:42:43.268Z,88.00
2018-08-07T04:43:43.275Z,92.00
2018-08-07T04:44:43.252Z,92.00
2018-08-07T04:45:43.273Z,96.00
2018-08-07T04:46:43.808Z,96.00
2018-08-07T04:47:43.208Z,100.00
2018-08-07T04:48:43.217Z,100.00
2018-08-07T04:49:43.188Z,96.00
2018-08-07T04:50:43.182Z,100.00
2018-08-07T04:51:43.191Z,100.00
2018-08-07T04:52:43.172Z,104.00
2018-08-07T04:53:43.143Z,104.00
2018-08-07T04:54:43.136Z,112.00
2018-08-07T04:55:43.118Z,108.00
2018-08-07T04:56:43.120Z,112.00
2018-08-07T04:57:43.101Z,116.00
2018-08-07T04:58:43.110Z,120.00
2018-08-07T04:59:43.099Z,120.00
2018-08-07T05:00:43.072Z,124.00
2018-08-07T05:01:43.058Z,124.00
2018-08-07T05:02:43.063Z,124.00
2018-08-07T05:03:43.052Z,128.00
2018-08-07T05:04:43.041Z,128.00
2018-08-07T05:05:43.015Z,128.00
2018-08-07T05:06:43.015Z,128.00
2018-08-07T05:08:04.008Z,132.00
2018-08-07T05:08:42.984Z,132.00
2018-08-07T05:09:42.971Z,136.00
2018-08-07T05:10:42.965Z,136.00
2018-08-07T05:11:42.947Z,140.00
2018-08-07T05:12:42.936Z,140.00
2018-08-07T05:13:42.938Z,144.00
2018-08-07T05:14:42.919Z,144.00
2018-08-07T05:15:42.908Z,144.00
2018-08-07T05:16:42.905Z,148.00
2018-08-07T05:17:42.884Z,148.00
2018-08-07T05:18:42.873Z,152.00
2018-08-07T05:19:42.859Z,156.00
2018-08-07T05:20:42.847Z,164.00
2018-08-07T05:21:42.852Z,176.00
2018-08-07T05:22:42.822Z,188.00
2018-08-07T05:23:42.815Z,192.00
2018-08-07T05:24:42.805Z,200.00
2018-08-07T05:25:42.796Z,208.00
2018-08-07T05:26:42.824Z,220.00
2018-08-07T05:27:42.772Z,232.00
2018-08-07T05:28:42.804Z,236.00
2018-08-07T05:29:42.790Z,236.00
2018-08-07T05:30:42.750Z,232.00
2018-08-07T05:31:42.728Z,224.00
2018-08-07T05:32:42.732Z,216.00
2018-08-07T05:33:42.704Z,200.00
2018-08-07T05:34:42.703Z,188.00
2018-08-07T05:35:42.687Z,184.00
2018-08-07T05:36:42.677Z,184.00
2018-08-07T05:37:42.679Z,180.00
2018-08-07T05:38:42.655Z,188.00
2018-08-07T05:39:42.646Z,188.00
2018-08-07T05:40:42.669Z,188.00
2018-08-07T05:41:42.640Z,192.00
2018-08-07T05:42:42.645Z,192.00
2018-08-07T05:43:42.613Z,196.00
2018-08-07T05:44:42.590Z,196.00
2018-08-07T05:45:42.580Z,200.00
2018-08-07T05:46:42.577Z,200.00
2018-08-07T05:47:42.562Z,200.00
2018-08-07T05:48:42.564Z,204.00
2018-08-07T05:49:42.539Z,204.00
2018-08-07T05:50:42.755Z,208.00
2018-08-07T05:51:42.520Z,204.00
2018-08-07T05:52:42.508Z,208.00
2018-08-07T05:53:42.514Z,208.00
2018-08-07T05:54:42.506Z,208.00
2018-08-07T05:55:42.478Z,208.00
2018-08-07T05:56:42.523Z,212.00
2018-08-07T05:57:42.457Z,216.00
2018-08-07T05:58:42.453Z,216.00
2018-08-07T05:59:42.454Z,216.00
2018-08-07T06:00:42.504Z,220.00
2018-08-07T06:01:42.417Z,220.00
2018-08-07T06:02:42.405Z,220.00
2018-08-07T06:03:42.427Z,224.00
2018-08-07T06:04:42.379Z,224.00
2018-08-07T06:05:42.372Z,228.00
2018-08-07T06:06:42.364Z,228.00
2018-08-07T06:07:42.357Z,232.00
2018-08-07T06:08:42.342Z,228.00
2018-08-07T06:09:42.342Z,236.00
2018-08-07T06:10:42.331Z,236.00
2018-08-07T06:11:42.312Z,240.00
2018-08-07T06:12:42.300Z,236.00
2018-08-07T06:13:42.287Z,240.00
2018-08-07T06:14:42.296Z,240.00
2018-08-07T06:15:42.274Z,244.00
2018-08-07T06:16:42.262Z,248.00
2018-08-07T06:17:42.250Z,248.00
2018-08-07T06:18:42.242Z,248.00
2018-08-07T06:19:42.230Z,248.00
2018-08-07T06:20:42.237Z,252.00
2018-08-07T06:21:42.205Z,252.00
2018-08-07T06:22:42.200Z,252.00
2018-08-07T06:23:42.189Z,252.00
2018-08-07T06:24:42.174Z,256.00
2018-08-07T06:25:42.236Z,252.00
2018-08-07T06:26:42.157Z,256.00
2018-08-07T06:27:42.148Z,256.00
2018-08-07T06:28:42.165Z,260.00
2018-08-07T06:29:42.126Z,260.00
2018-08-07T06:30:42.110Z,260.00
2018-08-07T06:31:42.125Z,260.00
2018-08-07T06:32:42.097Z,264.00
2018-08-07T06:33:42.084Z,264.00
2018-08-07T06:34:42.076Z,264.00
2018-08-07T06:35:42.065Z,268.00
2018-08-07T06:36:42.055Z,268.00
2018-08-07T06:37:42.073Z,272.00
2018-08-07T06:38:42.048Z,272.00
2018-08-07T06:39:42.021Z,272.00
2018-08-07T06:40:42.013Z,272.00
2018-08-07T06:41:42.004Z,272.00
2018-08-07T06:42:41.990Z,276.00
2018-08-07T06:43:41.989Z,280.00
2018-08-07T06:44:41.992Z,280.00
2018-08-07T06:45:41.963Z,280.00
2018-08-07T06:46:41.956Z,284.00
2018-08-07T06:47:41.961Z,284.00
2018-08-07T06:48:41.934Z,288.00
2018-08-07T06:49:41.925Z,292.00
2018-08-07T06:50:41.911Z,292.00
2018-08-07T06:51:41.903Z,296.00
2018-08-07T06:52:41.910Z,296.00
2018-08-07T06:53:41.883Z,300.00
2018-08-07T06:54:41.876Z,308.00
2018-08-07T06:55:41.865Z,308.00
2018-08-07T06:56:41.856Z,312.00
2018-08-07T06:57:41.866Z,312.00
2018-08-07T06:58:41.850Z,312.00
2018-08-07T06:59:41.842Z,308.00
2018-08-07T07:00:41.815Z,312.00
2018-08-07T07:01:41.807Z,316.00
2018-08-07T07:02:41.843Z,316.00
2018-08-07T07:03:41.788Z,320.00
2018-08-07T07:04:41.798Z,324.00
2018-08-07T07:05:41.767Z,320.00
2018-08-07T07:06:41.758Z,324.00
2018-08-07T07:07:41.750Z,328.00
2018-08-07T07:08:41.739Z,328.00
2018-08-07T07:09:41.751Z,336.00
2018-08-07T07:10:41.735Z,344.00
2018-08-07T07:11:41.712Z,364.00
2018-08-07T07:12:41.698Z,384.00
2018-08-07T07:13:41.688Z,408.00
2018-08-07T07:14:41.697Z,416.00
2018-08-07T07:15:41.674Z,400.00
2018-08-07T07:16:41.662Z,364.00
2018-08-07T07:17:41.658Z,364.00
2018-08-07T07:18:41.645Z,368.00
2018-08-07T07:19:41.666Z,364.00
2018-08-07T07:20:41.694Z,356.00
2018-08-07T07:21:41.617Z,360.00
2018-08-07T07:22:41.610Z,360.00
2018-08-07T07:23:41.598Z,360.00
2018-08-07T07:24:41.591Z,364.00
2018-08-07T07:26:02.597Z,372.00
2018-08-07T07:26:41.592Z,372.00
2018-08-07T07:27:41.557Z,380.00
2018-08-07T07:28:41.548Z,388.00
2018-08-07T07:29:41.545Z,388.00
2018-08-07T07:30:41.563Z,396.00
2018-08-07T07:31:41.537Z,404.00
2018-08-07T07:32:41.515Z,404.00
2018-08-07T07:33:41.506Z,408.00
2018-08-07T07:34:41.542Z,412.00
2018-08-07T07:35:41.489Z,416.00
2018-08-07T07:36:41.487Z,452.00
2018-08-07T07:37:41.484Z,476.00
2018-08-07T07:38:41.462Z,424.00
2018-08-07T07:39:41.450Z,404.00
2018-08-07T07:40:41.479Z,404.00
2018-08-07T07:41:41.451Z,404.00
2018-08-07T07:42:41.451Z,404.00
2018-08-07T07:43:41.419Z,400.00
2018-08-07T07:44:41.404Z,404.00
2018-08-07T07:45:41.483Z,408.00
2018-08-07T07:46:41.437Z,408.00
2018-08-07T07:47:41.400Z,412.00
2018-08-07T07:48:41.373Z,416.00
2018-08-07T07:49:41.365Z,428.00
2018-08-07T07:50:41.354Z,424.00
2018-08-07T07:51:41.358Z,424.00
2018-08-07T07:52:41.334Z,428.00
2018-08-07T07:53:41.330Z,440.00
2018-08-07T07:54:41.320Z,436.00
2018-08-07T07:55:41.315Z,436.00
2018-08-07T07:56:41.301Z,440.00
2018-08-07T07:57:41.313Z,444.00
2018-08-07T07:58:41.299Z,448.00
2018-08-07T07:59:41.277Z,460.00
2018-08-07T08:00:41.266Z,464.00
2018-08-07T08:01:41.260Z,472.00
2018-08-07T08:02:41.247Z,472.00
2018-08-07T08:03:41.239Z,472.00
2018-08-07T08:04:41.250Z,472.00
2018-08-07T08:05:41.239Z,476.00
2018-08-07T08:06:41.215Z,476.00
2018-08-07T08:07:41.209Z,476.00
2018-08-07T08:08:41.198Z,480.00
2018-08-07T08:09:41.209Z,484.00
2018-08-07T08:10:41.181Z,488.00
2018-08-07T08:11:41.179Z,492.00
2018-08-07T08:12:41.164Z,492.00
2018-08-07T08:13:41.172Z,500.00
2018-08-07T08:14:41.172Z,500.00
2018-08-07T08:15:41.143Z,504.00
2018-08-07T08:16:41.143Z,508.00
2018-08-07T08:17:41.123Z,516.00
2018-08-07T08:18:41.115Z,516.00
2018-08-07T08:19:41.107Z,524.00
2018-08-07T08:20:41.117Z,532.00
2018-08-07T08:21:41.091Z,536.00
2018-08-07T08:22:41.083Z,544.00
2018-08-07T08:23:41.071Z,552.00
2018-08-07T08:24:41.079Z,552.00
2018-08-07T08:25:41.072Z,560.00
2018-08-07T08:26:41.050Z,564.00
2018-08-07T08:27:41.040Z,572.00
2018-08-07T08:28:41.041Z,576.00
2018-08-07T08:29:41.047Z,584.00
2018-08-07T08:30:41.027Z,600.00
2018-08-07T08:31:41.009Z,592.00
2018-08-07T08:32:41.003Z,608.00
2018-08-07T08:33:41.015Z,620.00
2018-08-07T08:34:40.987Z,612.00
2018-08-07T08:35:41.045Z,624.00
2018-08-07T08:36:40.984Z,616.00
2018-08-07T08:37:40.962Z,624.00
2018-08-07T08:38:40.955Z,632.00
2018-08-07T08:39:40.943Z,640.00
2018-08-07T08:40:40.950Z,648.00
2018-08-07T08:41:40.928Z,648.00
2018-08-07T08:42:40.918Z,660.00
2018-08-07T08:43:40.917Z,676.00
2018-08-07T08:44:40.904Z,692.00
2018-08-07T08:45:40.910Z,700.00
2018-08-07T08:46:40.905Z,700.00
2018-08-07T08:47:40.885Z,736.00
2018-08-07T08:48:40.938Z,724.00
2018-08-07T08:49:40.869Z,756.00
2018-08-07T08:50:40.878Z,732.00
2018-08-07T08:51:40.880Z,748.00
2018-08-07T08:52:40.843Z,784.00
2018-08-07T08:53:40.832Z,868.00
2018-08-07T08:54:40.825Z,964.00
2018-08-07T08:55:40.818Z,1264.00
2018-08-07T08:56:40.812Z,1760.00
2018-08-07T08:57:40.821Z,2552.00
2018-08-07T08:58:40.799Z,3236.00
2018-08-07T08:59:40.790Z,4324.00
2018-08-07T09:00:40.784Z,3944.00
2018-08-07T09:01:40.773Z,3188.00
2018-08-07T09:02:40.781Z,3132.00
2018-08-07T09:03:40.762Z,2532.00
2018-08-07T09:04:40.758Z,2300.00
2018-08-07T09:05:40.752Z,2620.00
2018-08-07T09:06:40.738Z,2840.00
2018-08-07T09:07:40.750Z,2580.00
2018-08-07T09:08:40.729Z,2860.00
2018-08-07T09:09:40.721Z,3780.00
2018-08-07T09:10:40.889Z,4184.00
2018-08-07T09:11:40.708Z,3532.00
2018-08-07T09:12:40.702Z,3064.00
2018-08-07T09:13:40.696Z,2560.00
2018-08-07T09:14:40.689Z,2484.00
2018-08-07T09:15:40.702Z,2768.00
2018-08-07T09:16:40.676Z,3440.00
2018-08-07T09:17:40.674Z,4840.00
2018-08-07T09:18:40.666Z,7240.00
2018-08-07T09:19:40.796Z,9980.00
2018-08-07T09:20:40.655Z,12000.00
2018-08-07T09:21:40.665Z,13408.00
2018-08-07T09:22:40.639Z,15840.00
2018-08-07T09:23:40.630Z,16352.00
2018-08-07T09:24:40.626Z,16480.00
2018-08-07T09:25:40.719Z,16480.00
2018-08-07T09:26:40.629Z,16704.00
2018-08-07T09:27:40.610Z,16832.00
2018-08-07T09:28:40.613Z,16928.00
2018-08-07T09:29:40.602Z,17024.00
2018-08-07T09:30:40.610Z,17120.00
2018-08-07T09:31:40.593Z,17088.00
2018-08-07T09:32:40.588Z,17184.00
2018-08-07T09:33:40.575Z,17216.00
2018-08-07T09:34:40.572Z,17280.00
2018-08-07T09:35:40.590Z,17504.00
2018-08-07T09:36:40.574Z,17376.00
2018-08-07T09:37:40.568Z,17536.00
2018-08-07T09:38:40.578Z,17728.00
2018-08-07T09:39:40.629Z,17888.00
2018-08-07T09:40:40.580Z,18080.00
2018-08-07T09:41:40.559Z,18240.00
2018-08-07T09:42:40.554Z,18560.00
2018-08-07T09:43:40.554Z,18784.00
2018-08-07T09:44:40.551Z,18848.00
2018-08-07T09:45:40.552Z,19104.00
2018-08-07T09:46:40.623Z,19872.00
2018-08-07T09:47:40.545Z,20160.00
2018-08-07T09:48:40.548Z,19840.00
2018-08-07T09:49:40.562Z,20000.00
2018-08-07T09:50:40.546Z,20320.00
2018-08-07T09:51:40.561Z,20192.00
2018-08-07T09:52:40.560Z,19872.00
2018-08-07T09:53:40.560Z,19712.00
2018-08-07T09:54:40.565Z,19712.00
2018-08-07T09:55:40.598Z,19904.00
2018-08-07T09:56:40.546Z,20384.00
2018-08-07T09:57:40.548Z,20480.00
2018-08-07T09:58:40.610Z,20352.00
2018-08-07T09:59:40.548Z,20512.00
2018-08-07T10:00:40.547Z,20864.00
2018-08-07T10:01:40.578Z,20416.00
2018-08-07T10:02:40.550Z,20320.00
2018-08-07T10:03:40.551Z,20352.00
2018-08-07T10:04:40.553Z,20096.00
2018-08-07T10:05:40.556Z,20032.00
2018-08-07T10:06:40.558Z,19808.00
2018-08-07T10:07:40.566Z,19488.00
2018-08-07T10:08:40.559Z,19328.00
2018-08-07T10:09:40.578Z,19168.00
2018-08-07T10:10:40.568Z,18752.00
2018-08-07T10:11:40.564Z,18592.00
2018-08-07T10:12:40.563Z,18720.00
2018-08-07T10:13:40.569Z,18784.00
2018-08-07T10:14:40.574Z,18720.00
2018-08-07T10:15:40.585Z,18880.00
2018-08-07T10:16:40.574Z,18976.00
2018-08-07T10:17:40.576Z,19072.00
2018-08-07T10:18:40.581Z,18944.00
2018-08-07T10:19:40.581Z,19104.00
2018-08-07T10:20:40.597Z,19360.00
2018-08-07T10:21:40.595Z,19648.00
2018-08-07T10:22:40.585Z,20416.00
2018-08-07T10:23:40.601Z,20640.00
2018-08-07T10:24:40.589Z,20832.00
2018-08-07T10:25:40.594Z,21344.00
2018-08-07T10:26:40.593Z,20608.00
2018-08-07T10:27:40.592Z,21344.00
2018-08-07T10:28:40.613Z,21760.00
2018-08-07T10:29:40.599Z,21952.00
2018-08-07T10:30:40.659Z,21984.00
2018-08-07T10:31:40.602Z,21888.00
2018-08-07T10:32:40.605Z,22240.00
2018-08-07T10:33:40.610Z,22208.00
2018-08-07T10:34:40.629Z,22240.00
2018-08-07T10:35:40.611Z,22496.00
2018-08-07T10:36:40.617Z,22848.00
2018-08-07T10:37:40.629Z,22272.00
2018-08-07T10:38:40.619Z,22560.00
2018-08-07T10:39:40.639Z,22912.00
2018-08-07T10:40:40.712Z,22912.00
2018-08-07T10:41:40.629Z,22816.00
2018-08-07T10:42:40.764Z,22624.00
2018-08-07T10:43:40.736Z,22432.00
2018-08-07T10:44:40.652Z,21952.00
2018-08-07T10:45:40.639Z,21568.00
2018-08-07T10:46:40.640Z,21568.00
2018-08-07T10:47:40.712Z,21312.00
2018-08-07T10:48:40.645Z,21152.00
2018-08-07T10:49:40.662Z,21216.00
2018-08-07T10:50:40.680Z,21120.00
2018-08-07T10:51:40.655Z,20960.00
2018-08-07T10:52:40.656Z,20192.00
2018-08-07T10:53:40.660Z,20256.00
2018-08-07T10:54:40.675Z,20224.00
2018-08-07T10:55:40.669Z,20224.00
2018-08-07T10:56:40.666Z,20256.00
2018-08-07T10:57:40.669Z,20448.00
2018-08-07T10:58:40.690Z,20512.00
2018-08-07T10:59:40.689Z,19520.00
2018-08-07T11:00:40.691Z,21024.00
2018-08-07T11:01:40.679Z,20992.00
2018-08-07T11:02:40.681Z,20768.00
2018-08-07T11:03:40.684Z,20512.00
2018-08-07T11:04:40.704Z,19680.00
2018-08-07T11:05:40.733Z,19072.00
2018-08-07T11:06:40.709Z,18592.00
2018-08-07T11:07:40.697Z,19520.00
2018-08-07T11:08:40.698Z,19680.00
2018-08-07T11:09:40.703Z,18688.00
2018-08-07T11:10:40.720Z,16544.00
2018-08-07T11:11:40.707Z,19968.00
2018-08-07T11:12:40.710Z,19616.00
2018-08-07T11:13:40.727Z,19488.00
2018-08-07T11:14:40.722Z,19648.00
2018-08-07T11:15:40.736Z,19584.00
2018-08-07T11:16:40.724Z,18304.00
2018-08-07T11:17:40.738Z,16704.00
2018-08-07T11:18:40.747Z,17280.00
2018-08-07T11:19:40.732Z,16160.00
2018-08-07T11:20:40.751Z,16384.00
2018-08-07T11:21:40.739Z,17440.00
2018-08-07T11:22:40.741Z,16928.00
2018-08-07T11:23:40.749Z,16608.00
2018-08-07T11:24:40.776Z,16448.00
2018-08-07T11:25:40.766Z,16096.00
2018-08-07T11:26:40.756Z,15296.00
2018-08-07T11:27:40.757Z,13632.00
2018-08-07T11:28:40.775Z,13520.00
2018-08-07T11:29:40.767Z,13888.00
2018-08-07T11:30:40.772Z,13460.00
2018-08-07T11:31:40.777Z,13752.00
2018-08-07T11:32:40.772Z,13252.00
2018-08-07T11:33:40.793Z,13048.00
2018-08-07T11:34:40.778Z,11864.00
2018-08-07T11:35:40.781Z,11176.00
2018-08-07T11:36:40.788Z,6208.00
2018-08-07T11:37:40.793Z,9280.00
2018-08-07T11:38:40.815Z,6696.00
2018-08-07T11:39:40.801Z,9404.00
2018-08-07T11:40:40.799Z,9848.00
2018-08-07T11:41:40.806Z,9568.00
2018-08-07T11:42:40.813Z,9108.00
2018-08-07T11:43:40.817Z,8544.00
2018-08-07T11:44:40.828Z,8008.00
2018-08-07T11:45:40.825Z,7276.00
2018-08-07T11:46:40.822Z,6608.00
2018-08-07T11:47:40.830Z,6512.00
2018-08-07T11:48:40.834Z,6440.00
2018-08-07T11:49:40.847Z,6388.00
2018-08-07T11:50:40.840Z,6344.00
2018-08-07T11:51:40.844Z,7336.00
2018-08-07T11:52:40.847Z,6668.00
2018-08-07T11:53:40.851Z,7708.00
2018-08-07T11:54:40.873Z,7848.00
2018-08-07T11:55:40.860Z,5316.00
2018-08-07T11:56:40.863Z,6368.00
2018-08-07T11:57:40.862Z,7852.00
2018-08-07T11:58:40.872Z,6852.00
2018-08-07T11:59:40.889Z,7736.00
2018-08-07T12:00:40.878Z,7360.00
2018-08-07T12:01:40.876Z,6760.00
2018-08-07T12:02:40.883Z,6644.00
2018-08-07T12:03:40.888Z,6928.00
2018-08-07T12:04:40.889Z,6892.00
2018-08-07T12:05:40.906Z,6768.00
2018-08-07T12:06:40.897Z,6636.00
2018-08-07T12:07:40.903Z,6644.00
2018-08-07T12:08:40.900Z,7100.00
2018-08-07T12:09:40.908Z,7524.00
2018-08-07T12:10:40.927Z,7672.00
2018-08-07T12:11:40.917Z,9928.00
2018-08-07T12:12:40.918Z,9124.00
2018-08-07T12:13:40.921Z,8928.00
2018-08-07T12:14:40.926Z,9024.00
2018-08-07T12:15:40.945Z,8284.00
2018-08-07T12:16:40.930Z,8424.00
2018-08-07T12:17:40.936Z,7764.00
2018-08-07T12:18:40.943Z,7460.00
2018-08-07T12:19:40.943Z,7224.00
2018-08-07T12:20:40.960Z,8220.00
2018-08-07T12:21:40.997Z,8192.00
2018-08-07T12:22:40.955Z,7932.00
2018-08-07T12:23:40.956Z,6848.00
2018-08-07T12:24:40.958Z,5256.00
2018-08-07T12:25:40.960Z,6000.00
2018-08-07T12:26:40.990Z,6892.00
2018-08-07T12:27:41.015Z,8604.00
2018-08-07T12:28:40.973Z,8204.00
2018-08-07T12:29:40.975Z,7152.00
2018-08-07T12:30:40.985Z,7332.00
2018-08-07T12:31:40.983Z,7408.00
2018-08-07T12:32:40.998Z,6844.00
2018-08-07T12:33:41.002Z,6812.00